Main page


Airports :

Nawabshah, Pakistan

Nawabshah Airport

latitude: 26-15N, longitude: 068-22E, elevation: 37 m

Current weather observation

The report was made 2 hours and 3 minutes ago, at 21:00 UTC
Calm wind
Temperature 20°C
Humidity 64%
Pressure 1009 hPa
Visibility: 3000 m

METAR: OPNH 222100Z 00000KT 3000 FU NSC 20/13 Q1009 NOSIG

Time: 04:03 (23:03 UTC)


The report was made 7 hours and 33 minutes ago, at 15:30 UTC
Forecast valid from 22 at 18 UTC to 23 at 24 UTC
Wind 10 kt from the South
Visibility: 4000 m
from 23 at 00 UTC to 23 at 04 UTC
Wind kt from the North
Visibility: 2000 m
From 23 at 1800 UTC
Wind 3 kt from variable directions
Visibility: 3000 m

TAF: OPNH 221530Z 2218/2324 18010KT 4000 HZ NSC TEMPO 2300/2304 00000KT 2000 FU NSC FM231800 VRB03KT 3000 FU NSC

Weather observations and forecasts of more than 4000 airports (METAR and TAF reports).

The available stations are represented by yellow and red dots on the map.

Hover mouse over dot to see the name of the station.

Then click to see weather observations and forecasts.

To change the map : click on the green buttons with a black cross to zoom in, on the green button with a dash to zoom out, or on the green arrows for adjacent maps.